FXMM

Moshoeshoe I International Airport

Maseru, Lesotho
METAR FXMM 171400Z 27010KT 9999 FEW080 17/M16 Q1021 NOSIG
Observed Flight Rules
Aug-17 @ 14:00 UTC (58 minutes ago) Visual Flight Rules
Wind Visibility Clouds
270° at 10 knots 10,000+ meters
  • Few at 8,000' AGL
Temperatures Readings
Current 17°C / 63°F
Dewpoint -16°C / 3°F
Humidity 9%
Altimeter 30.15" Hg
Pressure 1021 hPa
Elevation 1631
METAR FXMM 171400Z 27010KT 9999 FEW080 17/M16 Q1021 NOSIG
Observed Flight Rules
Aug-17 @ 14:00 UTC
(58 minutes ago)
VFR
Wind Visibility
270° at 10 knots 10,000+ meters
Clouds
  • Few at 8,000' AGL
Temperature Dewpoint
17°C / 63°F -16°C / 3°F
Humidity Altimeter Pressure
9% 30.15" Hg 1021 hPa